createdAt,value
2022-09-28T00:01:17.132Z,99269.50
2022-09-28T00:03:46.185Z,99271.06
2022-09-28T00:06:16.785Z,99276.22
2022-09-28T00:08:45.861Z,99273.00
2022-09-28T00:11:15.904Z,99270.56
2022-09-28T00:13:49.240Z,99270.31
2022-09-28T00:16:20.045Z,99275.53
2022-09-28T00:18:51.134Z,99278.97
2022-09-28T00:21:21.553Z,99280.06
2022-09-28T00:24:10.753Z,99281.47
2022-09-28T00:26:40.609Z,99278.38
2022-09-28T00:29:17.562Z,99284.22
2022-09-28T00:31:46.483Z,99287.94
2022-09-28T00:34:15.185Z,99286.41
2022-09-28T00:36:46.118Z,99280.78
2022-09-28T00:39:16.017Z,99282.78
2022-09-28T00:41:45.467Z,99290.03
2022-09-28T00:44:36.262Z,99286.13
2022-09-28T00:47:10.652Z,99281.06
2022-09-28T00:49:44.945Z,99274.09
2022-09-28T00:52:15.998Z,99279.38
2022-09-28T00:54:48.406Z,99277.69
2022-09-28T00:57:17.078Z,99278.88
2022-09-28T00:59:46.750Z,99271.44
2022-09-28T01:02:15.184Z,99271.72
2022-09-28T01:04:43.422Z,99264.97
2022-09-28T01:07:12.584Z,99269.56
2022-09-28T01:09:41.709Z,99262.97
2022-09-28T01:12:10.002Z,99262.88
2022-09-28T01:14:38.692Z,99264.66
2022-09-28T01:17:14.946Z,99263.03
2022-09-28T01:20:23.512Z,99255.97
2022-09-28T01:23:29.400Z,99267.50
2022-09-28T01:26:24.324Z,99270.03
2022-09-28T01:28:58.117Z,99261.88
2022-09-28T01:31:32.219Z,99260.22
2022-09-28T01:34:05.307Z,99266.34
2022-09-28T01:36:37.272Z,99254.00
2022-09-28T01:39:10.591Z,99248.94
2022-09-28T01:41:42.304Z,99243.91
2022-09-28T01:44:15.414Z,99247.28
2022-09-28T01:46:47.989Z,99243.59
2022-09-28T01:49:20.985Z,99246.41
2022-09-28T01:51:54.677Z,99249.50
2022-09-28T01:54:29.132Z,99247.66
2022-09-28T01:57:05.591Z,99256.59
2022-09-28T01:59:37.192Z,99252.53
2022-09-28T02:02:10.776Z,99252.03
2022-09-28T02:04:45.033Z,99252.88
2022-09-28T02:07:19.352Z,99250.50
2022-09-28T02:09:54.057Z,99252.06
2022-09-28T02:12:31.933Z,99249.91
2022-09-28T02:15:12.609Z,99255.91
2022-09-28T02:17:41.605Z,99249.44
2022-09-28T02:20:11.195Z,99251.31
2022-09-28T02:22:43.671Z,99242.59
2022-09-28T02:25:15.729Z,99245.50
2022-09-28T02:27:53.893Z,99251.31
2022-09-28T02:30:22.496Z,99245.22
2022-09-28T02:32:54.525Z,99248.34
2022-09-28T02:35:23.649Z,99247.28
2022-09-28T02:37:51.846Z,99239.94
2022-09-28T02:40:22.654Z,99236.25
2022-09-28T02:43:04.995Z,99233.41
2022-09-28T02:45:45.583Z,99238.09
2022-09-28T02:48:42.648Z,99231.66
2022-09-28T02:51:22.157Z,99238.16
2022-09-28T02:54:18.865Z,99232.59
2022-09-28T02:56:57.525Z,99236.63
2022-09-28T02:59:41.404Z,99235.50
2022-09-28T03:02:19.680Z,99228.50
2022-09-28T03:05:02.730Z,99225.28
2022-09-28T03:07:37.707Z,99227.78
2022-09-28T03:10:11.093Z,99225.34
2022-09-28T03:12:40.015Z,99219.59
2022-09-28T03:15:12.147Z,99221.03
2022-09-28T03:17:41.471Z,99206.09
2022-09-28T03:20:11.439Z,99217.41
2022-09-28T03:22:39.653Z,99222.34
2022-09-28T03:25:09.800Z,99215.78
2022-09-28T03:27:40.225Z,99215.56
2022-09-28T03:30:12.096Z,99210.72
2022-09-28T03:32:42.956Z,99213.28
2022-09-28T03:35:11.454Z,99205.88
2022-09-28T03:37:39.578Z,99207.09
2022-09-28T03:40:08.224Z,99207.16
2022-09-28T03:42:37.737Z,99203.47
2022-09-28T03:45:07.406Z,99215.97
2022-09-28T03:47:37.339Z,99213.94
2022-09-28T03:50:06.899Z,99204.63
2022-09-28T03:52:35.011Z,99203.78
2022-09-28T03:55:03.132Z,99210.50
2022-09-28T03:57:31.277Z,99209.59
2022-09-28T03:59:59.391Z,99198.19
2022-09-28T04:02:28.964Z,99204.41
2022-09-28T04:04:58.533Z,99198.41
2022-09-28T04:07:30.771Z,99200.06
2022-09-28T04:09:59.815Z,99206.59
2022-09-28T04:12:28.065Z,99196.97
2022-09-28T04:14:56.301Z,99194.44
2022-09-28T04:17:24.561Z,99190.97
2022-09-28T04:19:53.130Z,99200.81
2022-09-28T04:22:40.066Z,99192.38
2022-09-28T04:25:08.842Z,99178.44
2022-09-28T04:27:54.955Z,99178.44
2022-09-28T04:30:23.282Z,99169.72
2022-09-28T04:32:51.437Z,99161.28
2022-09-28T04:35:19.890Z,99152.84
2022-09-28T04:37:50.204Z,99152.47
2022-09-28T04:40:18.361Z,99148.84
2022-09-28T04:42:54.223Z,99152.56
2022-09-28T04:45:22.738Z,99149.53
2022-09-28T04:47:52.006Z,99151.16
2022-09-28T04:50:42.933Z,99146.44
2022-09-28T04:53:20.837Z,99149.63
2022-09-28T04:55:57.105Z,99146.84
2022-09-28T04:58:25.500Z,99140.47
2022-09-28T05:00:54.633Z,99146.09
2022-09-28T05:03:48.765Z,99143.56
2022-09-28T05:06:28.568Z,99151.03
2022-09-28T05:09:04.117Z,99154.13
2022-09-28T05:11:32.364Z,99148.41
2022-09-28T05:14:01.255Z,99152.84
2022-09-28T05:16:31.023Z,99142.97
2022-09-28T05:19:25.512Z,99151.63
2022-09-28T05:21:57.952Z,99152.97
2022-09-28T05:24:27.906Z,99151.47
2022-09-28T05:26:56.047Z,99159.63
2022-09-28T05:29:27.145Z,99149.78
2022-09-28T05:32:16.807Z,99156.06
2022-09-28T05:35:01.114Z,99150.38
2022-09-28T05:37:38.593Z,99150.13
2022-09-28T05:40:08.961Z,99151.03
2022-09-28T05:42:37.157Z,99157.59
2022-09-28T05:45:06.363Z,99164.84
2022-09-28T05:47:38.540Z,99162.25
2022-09-28T05:50:11.600Z,99167.19
2022-09-28T05:52:40.159Z,99166.63
2022-09-28T05:55:11.764Z,99175.78
2022-09-28T05:57:40.029Z,99179.16
2022-09-28T06:00:09.711Z,99171.25
2022-09-28T06:02:40.832Z,99179.28
2022-09-28T06:05:12.601Z,99173.03
2022-09-28T06:07:40.734Z,99175.31
2022-09-28T06:10:10.885Z,99171.25
2022-09-28T06:12:42.703Z,99173.69
2022-09-28T06:15:18.055Z,99175.72
2022-09-28T06:17:47.767Z,99175.16
2022-09-28T06:20:41.013Z,99167.25
2022-09-28T06:23:16.825Z,99168.44
2022-09-28T06:25:46.519Z,99167.38
2022-09-28T06:28:16.092Z,99158.50
2022-09-28T06:30:45.069Z,99155.50
2022-09-28T06:33:17.403Z,99153.22
2022-09-28T06:35:45.824Z,99139.53
2022-09-28T06:38:14.110Z,99137.00
2022-09-28T06:40:42.602Z,99128.22
2022-09-28T06:43:15.064Z,99123.75
2022-09-28T06:46:03.117Z,99124.50
2022-09-28T06:48:49.992Z,99109.34
2022-09-28T06:51:53.059Z,99121.59
2022-09-28T06:54:36.364Z,99126.63
2022-09-28T06:57:22.126Z,99121.31
2022-09-28T06:59:51.642Z,99105.38
2022-09-28T07:02:20.211Z,99112.66
2022-09-28T07:05:03.691Z,99101.72
2022-09-28T07:07:42.898Z,99105.53
2022-09-28T07:10:44.395Z,99099.25
2022-09-28T07:16:16.879Z,99091.13
2022-09-28T07:18:45.172Z,99072.94
2022-09-28T07:21:23.226Z,99080.38
2022-09-28T07:23:55.150Z,99087.38
2022-09-28T07:26:26.636Z,99089.56
2022-09-28T07:29:08.640Z,99086.06
2022-09-28T07:31:47.642Z,99092.66
2022-09-28T07:34:30.489Z,99094.59
2022-09-28T07:37:13.740Z,99092.69
2022-09-28T07:39:59.637Z,99089.47
2022-09-28T07:42:30.083Z,99085.50
2022-09-28T07:44:58.896Z,99084.47
2022-09-28T07:47:33.854Z,99089.59
2022-09-28T07:50:33.512Z,99079.16
2022-09-28T07:53:13.107Z,99073.72
2022-09-28T07:56:01.982Z,99069.59
2022-09-28T07:58:44.113Z,99061.47
2022-09-28T08:01:35.360Z,99060.34
2022-09-28T08:04:05.416Z,99058.28
2022-09-28T08:06:35.777Z,99054.28
2022-09-28T08:09:10.650Z,99058.00
2022-09-28T08:11:59.629Z,99056.16
2022-09-28T08:14:37.880Z,99058.69
2022-09-28T08:17:31.652Z,99046.19
2022-09-28T08:20:20.855Z,99050.50
2022-09-28T08:22:48.967Z,99059.03
2022-09-28T08:25:17.353Z,99053.75
2022-09-28T08:27:45.490Z,99051.06
2022-09-28T08:30:13.803Z,99055.94
2022-09-28T08:32:53.995Z,99063.50
2022-09-28T08:35:42.443Z,99063.47
2022-09-28T08:38:15.431Z,99059.00
2022-09-28T08:41:17.609Z,99048.78
2022-09-28T08:44:15.264Z,99043.09
2022-09-28T08:47:06.492Z,99048.28
2022-09-28T08:49:51.983Z,99059.00
2022-09-28T08:53:10.125Z,99060.06
2022-09-28T08:56:04.970Z,99056.06
2022-09-28T08:58:36.763Z,99059.28
2022-09-28T09:01:11.794Z,99067.66
2022-09-28T09:03:41.902Z,99062.66
2022-09-28T09:06:37.595Z,99048.06
2022-09-28T09:09:36.802Z,99058.63
2022-09-28T09:12:11.588Z,99065.16
2022-09-28T09:15:12.669Z,99061.41
2022-09-28T09:17:51.236Z,99057.19
2022-09-28T09:20:36.532Z,99054.22
2022-09-28T09:23:20.363Z,99055.75
2022-09-28T09:25:54.802Z,99061.47
2022-09-28T09:28:40.401Z,99060.50
2022-09-28T09:31:22.423Z,99067.09
2022-09-28T09:34:14.264Z,99055.88
2022-09-28T09:37:02.629Z,99055.25
2022-09-28T09:40:04.257Z,99061.53
2022-09-28T09:43:12.530Z,99065.69
2022-09-28T09:46:08.900Z,99067.25
2022-09-28T09:49:02.664Z,99067.69
2022-09-28T09:51:39.204Z,99071.88
2022-09-28T09:54:17.126Z,99067.50
2022-09-28T09:56:51.251Z,99071.31
2022-09-28T09:59:42.893Z,99063.06
2022-09-28T10:02:37.139Z,99057.19
2022-09-28T10:05:22.664Z,99059.31
2022-09-28T10:07:55.903Z,99065.31
2022-09-28T10:10:29.159Z,99058.44
2022-09-28T10:13:06.872Z,99061.03
2022-09-28T10:15:38.960Z,99069.94
2022-09-28T10:18:16.244Z,99066.97
2022-09-28T10:21:03.065Z,99067.88
2022-09-28T10:23:41.871Z,99067.97
2022-09-28T10:26:15.597Z,99068.06
2022-09-28T10:28:49.379Z,99069.41
2022-09-28T10:31:42.865Z,99069.59
2022-09-28T10:34:19.674Z,99069.56
2022-09-28T10:36:52.259Z,99068.91
2022-09-28T10:39:34.005Z,99064.06
2022-09-28T10:42:07.212Z,99070.78
2022-09-28T10:44:48.758Z,99063.50
2022-09-28T10:47:36.986Z,99072.19
2022-09-28T10:50:21.564Z,99077.16
2022-09-28T10:52:51.520Z,99070.38
2022-09-28T10:55:40.205Z,99077.84
2022-09-28T10:58:26.050Z,99075.84
2022-09-28T11:01:02.155Z,99080.97
2022-09-28T11:03:32.299Z,99078.00
2022-09-28T11:06:08.511Z,99086.25
2022-09-28T11:08:42.665Z,99083.44
2022-09-28T11:11:18.356Z,99074.53
2022-09-28T11:13:51.140Z,99065.88
2022-09-28T11:16:27.507Z,99071.28
2022-09-28T11:19:03.954Z,99069.06
2022-09-28T11:21:42.745Z,99061.03
2022-09-28T11:24:21.744Z,99056.41
2022-09-28T11:26:54.262Z,99069.19
2022-09-28T11:29:37.987Z,99069.75
2022-09-28T11:32:26.086Z,99064.50
2022-09-28T11:35:19.641Z,99064.53
2022-09-28T11:38:04.872Z,99060.81
2022-09-28T11:41:33.308Z,99071.97
2022-09-28T11:44:19.295Z,99067.63
2022-09-28T11:46:59.077Z,99079.91
2022-09-28T11:49:34.678Z,99083.31
2022-09-28T11:52:10.717Z,99075.84
2022-09-28T11:54:43.503Z,99076.13
2022-09-28T11:57:19.177Z,99088.28
2022-09-28T11:59:56.233Z,99089.69
2022-09-28T12:02:27.037Z,99080.16
2022-09-28T12:05:14.885Z,99079.16
2022-09-28T12:07:52.137Z,99086.47
2022-09-28T12:10:47.478Z,99085.69
2022-09-28T12:13:22.500Z,99082.28
2022-09-28T12:16:17.450Z,99082.00
2022-09-28T12:18:49.344Z,99093.00
2022-09-28T12:21:34.892Z,99089.84
2022-09-28T12:24:12.805Z,99082.56
2022-09-28T12:26:45.378Z,99086.28
2022-09-28T12:29:16.692Z,99090.09
2022-09-28T12:31:56.710Z,99081.41
2022-09-28T12:34:24.945Z,99089.78
2022-09-28T12:37:05.893Z,99084.09
2022-09-28T12:39:58.122Z,99081.03
2022-09-28T12:42:47.473Z,99087.84
2022-09-28T12:45:42.857Z,99090.47
2022-09-28T12:48:38.908Z,99093.53
2022-09-28T12:51:20.495Z,99090.63
2022-09-28T12:54:01.688Z,99091.75
2022-09-28T12:56:41.431Z,99100.16
2022-09-28T12:59:19.939Z,99097.81
2022-09-28T13:02:17.085Z,99088.63
2022-09-28T13:05:15.798Z,99088.56
2022-09-28T13:07:50.908Z,99092.06
2022-09-28T13:10:27.396Z,99091.94
2022-09-28T13:13:17.281Z,99088.03
2022-09-28T13:15:54.458Z,99090.16
2022-09-28T13:18:29.394Z,99085.16
2022-09-28T13:21:06.548Z,99081.63
2022-09-28T13:23:38.925Z,99081.81
2022-09-28T13:26:16.105Z,99075.78
2022-09-28T13:28:47.918Z,99081.13
2022-09-28T13:31:21.749Z,99076.09
2022-09-28T13:33:50.977Z,99069.78
2022-09-28T13:36:41.687Z,99067.28
2022-09-28T13:39:48.811Z,99071.91
2022-09-28T13:42:37.882Z,99073.13
2022-09-28T13:45:23.073Z,99069.22
2022-09-28T13:48:04.782Z,99065.88
2022-09-28T13:50:45.676Z,99071.88
2022-09-28T13:53:26.138Z,99077.75
2022-09-28T13:56:01.609Z,99073.56
2022-09-28T13:58:33.470Z,99075.22
2022-09-28T14:01:08.210Z,99081.13
2022-09-28T14:03:53.583Z,99079.72
2022-09-28T14:06:28.015Z,99084.75
2022-09-28T14:09:25.295Z,99087.25
2022-09-28T14:11:59.199Z,99088.91
2022-09-28T14:14:48.108Z,99093.84
2022-09-28T14:17:59.399Z,99102.78
2022-09-28T14:20:31.385Z,99112.44
2022-09-28T14:23:29.340Z,99118.31
2022-09-28T14:26:16.488Z,99115.94
2022-09-28T14:28:55.545Z,99112.16
2022-09-28T14:31:27.618Z,99105.28
2022-09-28T14:33:59.388Z,99116.91
2022-09-28T14:36:51.802Z,99114.69
2022-09-28T14:39:46.421Z,99110.84
2022-09-28T14:42:17.820Z,99101.53
2022-09-28T14:45:20.289Z,99105.25
2022-09-28T14:48:20.434Z,99105.84
2022-09-28T14:50:50.228Z,99105.56
2022-09-28T14:53:21.162Z,99108.78
2022-09-28T14:55:52.393Z,99109.22
2022-09-28T14:58:23.418Z,99113.00
2022-09-28T15:01:02.177Z,99106.25
2022-09-28T15:03:33.886Z,99110.63
2022-09-28T15:06:03.419Z,99111.03
2022-09-28T15:08:39.480Z,99120.66
2022-09-28T15:11:14.683Z,99117.72
2022-09-28T15:13:43.839Z,99116.91
2022-09-28T15:16:14.177Z,99116.28
2022-09-28T15:18:59.649Z,99118.13
2022-09-28T15:21:36.310Z,99115.63
2022-09-28T15:24:24.298Z,99121.88
2022-09-28T15:26:53.490Z,99124.94
2022-09-28T15:29:23.752Z,99123.16
2022-09-28T15:31:54.507Z,99126.88
2022-09-28T15:34:51.569Z,99122.56
2022-09-28T15:37:25.019Z,99132.97
2022-09-28T15:39:54.762Z,99136.34
2022-09-28T15:42:23.334Z,99134.91
2022-09-28T15:45:03.420Z,99138.22
2022-09-28T15:47:32.878Z,99136.63
2022-09-28T15:50:05.336Z,99146.25
2022-09-28T15:52:38.741Z,99146.72
2022-09-28T15:55:20.086Z,99159.50
2022-09-28T15:57:48.613Z,99156.00
2022-09-28T16:00:26.798Z,99163.09
2022-09-28T16:03:01.470Z,99156.19
2022-09-28T16:05:37.349Z,99161.03
2022-09-28T16:08:21.152Z,99158.13
2022-09-28T16:10:57.723Z,99161.09
2022-09-28T16:13:26.457Z,99165.16
2022-09-28T16:15:59.641Z,99164.22
2022-09-28T16:18:29.701Z,99169.00
2022-09-28T16:21:21.323Z,99162.78
2022-09-28T16:23:55.683Z,99176.25
2022-09-28T16:26:32.189Z,99180.50
2022-09-28T16:29:02.274Z,99182.75
2022-09-28T16:31:34.639Z,99186.84
2022-09-28T16:34:19.773Z,99196.78
2022-09-28T16:36:49.755Z,99204.50
2022-09-28T16:39:20.669Z,99209.00
2022-09-28T16:41:52.655Z,99216.41
2022-09-28T16:44:26.361Z,99217.13
2022-09-28T16:46:57.029Z,99218.47
2022-09-28T16:49:26.335Z,99227.81
2022-09-28T16:51:54.822Z,99229.03
2022-09-28T16:54:43.619Z,99219.25
2022-09-28T16:57:14.154Z,99223.50
2022-09-28T16:59:42.293Z,99227.22
2022-09-28T17:02:35.472Z,99224.50
2022-09-28T17:05:07.079Z,99227.00
2022-09-28T17:07:35.596Z,99224.25
2022-09-28T17:10:15.908Z,99224.84
2022-09-28T17:12:44.045Z,99229.28
2022-09-28T17:15:12.145Z,99227.28
2022-09-28T17:17:41.024Z,99225.69
2022-09-28T17:20:22.478Z,99234.50
2022-09-28T17:22:50.857Z,99233.66
2022-09-28T17:25:21.145Z,99240.41
2022-09-28T17:27:50.331Z,99248.09
2022-09-28T17:30:23.538Z,99247.28
2022-09-28T17:32:53.955Z,99260.84
2022-09-28T17:35:24.991Z,99255.03
2022-09-28T17:37:54.157Z,99263.50
2022-09-28T17:40:26.683Z,99259.88
2022-09-28T17:42:56.097Z,99264.09
2022-09-28T17:45:26.935Z,99270.09
2022-09-28T17:47:55.912Z,99275.22
2022-09-28T17:50:26.159Z,99278.38
2022-09-28T17:52:55.635Z,99280.78
2022-09-28T17:55:28.542Z,99282.03
2022-09-28T17:57:57.571Z,99284.16
2022-09-28T18:00:27.491Z,99285.16
2022-09-28T18:02:56.721Z,99272.03
2022-09-28T18:05:25.724Z,99287.28
2022-09-28T18:07:54.695Z,99270.34
2022-09-28T18:10:27.506Z,99276.47
2022-09-28T18:12:55.889Z,99279.34
2022-09-28T18:15:24.255Z,99289.84
2022-09-28T18:17:52.668Z,99295.09
2022-09-28T18:20:21.150Z,99299.19
2022-09-28T18:22:49.515Z,99303.31
2022-09-28T18:25:18.064Z,99301.81
2022-09-28T18:27:47.814Z,99302.34
2022-09-28T18:30:16.239Z,99306.81
2022-09-28T18:32:44.570Z,99307.94
2022-09-28T18:35:12.902Z,99311.41
2022-09-28T18:37:41.701Z,99309.31
2022-09-28T18:40:12.758Z,99313.44
2022-09-28T18:42:41.260Z,99312.69
2022-09-28T18:45:12.181Z,99327.78
2022-09-28T18:47:40.925Z,99319.81
2022-09-28T18:50:11.552Z,99320.34
2022-09-28T18:52:40.945Z,99326.81
2022-09-28T18:55:10.424Z,99322.50
2022-09-28T18:57:41.172Z,99329.72
2022-09-28T19:00:13.453Z,99329.50
2022-09-28T19:02:41.743Z,99322.19
2022-09-28T19:05:10.126Z,99333.09
2022-09-28T19:07:38.232Z,99331.63
2022-09-28T19:10:07.337Z,99338.81
2022-09-28T19:12:35.449Z,99335.34
2022-09-28T19:15:03.661Z,99338.19
2022-09-28T19:17:33.787Z,99343.28
2022-09-28T19:20:03.302Z,99342.34
2022-09-28T19:22:31.425Z,99340.13
2022-09-28T19:24:59.534Z,99333.53
2022-09-28T19:27:27.660Z,99337.22
2022-09-28T19:29:55.786Z,99349.34
2022-09-28T19:32:23.920Z,99350.16
2022-09-28T19:34:53.502Z,99360.16
2022-09-28T19:37:21.720Z,99359.66
2022-09-28T19:39:49.860Z,99367.84
2022-09-28T19:42:18.010Z,99360.97
2022-09-28T19:44:46.473Z,99368.19
2022-09-28T19:47:14.640Z,99376.84
2022-09-28T19:49:42.759Z,99372.50
2022-09-28T19:52:17.012Z,99373.47
2022-09-28T19:54:52.059Z,99384.53
2022-09-28T19:57:20.541Z,99376.59
2022-09-28T19:59:52.540Z,99378.06
2022-09-28T20:02:21.689Z,99381.16
2022-09-28T20:04:49.943Z,99384.25
2022-09-28T20:07:19.405Z,99391.25
2022-09-28T20:09:47.528Z,99382.03
2022-09-28T20:12:15.650Z,99387.63
2022-09-28T20:14:43.791Z,99391.28
2022-09-28T20:17:11.918Z,99394.75
2022-09-28T20:19:40.042Z,99394.84
2022-09-28T20:22:08.178Z,99392.00
2022-09-28T20:24:37.665Z,99395.50
2022-09-28T20:27:05.784Z,99400.66
2022-09-28T20:29:35.280Z,99397.50
2022-09-28T20:32:04.213Z,99400.44
2022-09-28T20:34:33.540Z,99398.03
2022-09-28T20:37:02.303Z,99409.69
2022-09-28T20:39:31.534Z,99407.63
2022-09-28T20:42:01.002Z,99410.59
2022-09-28T20:44:29.112Z,99413.63
2022-09-28T20:46:57.277Z,99410.84
2022-09-28T20:49:27.106Z,99413.03
2022-09-28T20:51:55.291Z,99414.84
2022-09-28T20:54:23.414Z,99426.09
2022-09-28T20:56:51.576Z,99423.50
2022-09-28T20:59:22.828Z,99425.78
2022-09-28T21:01:51.124Z,99425.66
2022-09-28T21:04:19.453Z,99432.81
2022-09-28T21:06:47.698Z,99431.94
2022-09-28T21:09:15.857Z,99433.31
2022-09-28T21:11:43.969Z,99435.25
2022-09-28T21:14:12.164Z,99437.97
2022-09-28T21:16:41.662Z,99446.25
2022-09-28T21:19:09.766Z,99442.88
2022-09-28T21:21:37.976Z,99447.34
2022-09-28T21:24:06.619Z,99442.09
2022-09-28T21:26:35.194Z,99448.88
2022-09-28T21:29:05.065Z,99451.09
2022-09-28T21:31:38.464Z,99447.28
2022-09-28T21:34:13.185Z,99456.91
2022-09-28T21:36:41.396Z,99455.19
2022-09-28T21:39:10.631Z,99455.41
2022-09-28T21:41:39.044Z,99464.25
2022-09-28T21:44:08.139Z,99463.88
2022-09-28T21:46:37.459Z,99465.53
2022-09-28T21:49:08.636Z,99471.66
2022-09-28T21:51:37.569Z,99466.88
2022-09-28T21:54:06.006Z,99473.78
2022-09-28T21:56:34.134Z,99480.81
2022-09-28T21:59:02.399Z,99479.78
2022-09-28T22:01:31.686Z,99475.81
2022-09-28T22:03:59.937Z,99480.56
2022-09-28T22:06:29.422Z,99500.22
2022-09-28T22:08:58.560Z,99491.31
2022-09-28T22:11:28.605Z,99502.34
2022-09-28T22:13:58.597Z,99496.84
2022-09-28T22:16:28.500Z,99501.91
2022-09-28T22:18:56.684Z,99500.66
2022-09-28T22:21:27.414Z,99501.72
2022-09-28T22:24:00.147Z,99501.69
2022-09-28T22:26:29.420Z,99505.53
2022-09-28T22:28:59.328Z,99506.22
2022-09-28T22:31:29.424Z,99507.69
2022-09-28T22:33:58.330Z,99518.59
2022-09-28T22:36:27.211Z,99505.91
2022-09-28T22:38:57.616Z,99508.13
2022-09-28T22:41:26.424Z,99505.78
2022-09-28T22:43:55.545Z,99507.25
2022-09-28T22:46:25.427Z,99498.16
2022-09-28T22:48:55.264Z,99496.16
2022-09-28T22:51:25.039Z,99492.69
2022-09-28T22:53:53.565Z,99483.81
2022-09-28T22:56:23.116Z,99494.19
2022-09-28T22:58:51.318Z,99492.03
2022-09-28T23:01:21.267Z,99493.00
2022-09-28T23:03:50.133Z,99496.47
2022-09-28T23:06:20.209Z,99486.34
2022-09-28T23:08:49.044Z,99492.19
2022-09-28T23:11:17.391Z,99500.03
2022-09-28T23:13:51.364Z,99503.84
2022-09-28T23:16:20.040Z,99508.47
2022-09-28T23:18:49.167Z,99507.63
2022-09-28T23:21:19.738Z,99504.25
2022-09-28T23:23:53.139Z,99506.97
2022-09-28T23:26:23.607Z,99507.50
2022-09-28T23:28:53.881Z,99489.16
2022-09-28T23:31:24.335Z,99495.19
2022-09-28T23:33:53.205Z,99493.56
2022-09-28T23:36:21.347Z,99494.53
2022-09-28T23:38:49.469Z,99496.06
2022-09-28T23:41:17.607Z,99491.06
2022-09-28T23:43:46.025Z,99490.91
2022-09-28T23:46:20.492Z,99485.28
2022-09-28T23:48:49.326Z,99493.44
2022-09-28T23:51:17.702Z,99494.66
2022-09-28T23:53:45.850Z,99496.59
2022-09-28T23:56:14.366Z,99491.47
2022-09-28T23:58:42.716Z,99498.84
